Time;durP1;ratioP1;P1;durP2;ratioP2;P2;SDS_P1;SDS_P2;PMS_P1;PMS_P2;Temp;Humidity;BMP_temperature;BMP_pressure;BME280_temperature;BME280_humidity;BME280_pressure;Samples;Min_cycle;Max_cycle;Signal;HPM_P1;HPM_P2
2022/04/26 03:37:36;;;;;;;;;21.00;17.00;;;;;10.43;100.00;100989.25;6147754;23;45249;-95
2022/04/26 03:40:28;;;;;;;;;21.00;19.00;;;;;10.50;100.00;100999.22;6121958;23;48145;-96
2022/04/26 03:42:59;;;;;;;;;22.75;17.75;;;;;10.45;100.00;100992.84;6107245;23;45445;-96
2022/04/26 03:45:27;;;;;;;;;19.00;16.75;;;;;10.33;100.00;100977.41;6126058;22;45337;-96
2022/04/26 03:47:55;;;;;;;;;13.75;12.00;;;;;10.37;100.00;100992.44;6121184;23;45306;-96
2022/04/26 03:50:37;;;;;;;;;17.75;13.50;;;;;10.33;100.00;100977.41;6121525;23;48192;-96
2022/04/26 03:53:08;;;;;;;;;18.75;16.00;;;;;10.38;100.00;100987.31;6121603;23;45467;-96
2022/04/26 03:55:35;;;;;;;;;21.75;19.00;;;;;10.37;100.00;100995.97;6122408;23;45594;-96
2022/04/26 03:58:08;;;;;;;;;25.50;22.00;;;;;10.33;100.00;100988.78;6123882;22;45365;-96
2022/04/26 04:00:33;;;;;;;;;19.75;19.75;;;;;10.12;100.00;100978.09;6121547;23;47025;-96
2022/04/26 04:03:02;;;;;;;;;24.75;21.00;;;;;10.35;100.00;100996.72;6251319;22;45841;-96
2022/04/26 04:05:36;;;;;;;;;21.25;19.75;;;;;10.31;100.00;100993.03;6123152;23;45752;-96
2022/04/26 04:08:08;;;;;;;;;24.00;16.50;;;;;10.23;100.00;100984.78;6098148;23;45290;-96
2022/04/26 04:10:36;;;;;;;;;23.50;17.50;;;;;10.32;100.00;101004.44;6121201;23;46999;-96
2022/04/26 04:13:05;;;;;;;;;24.00;19.75;;;;;10.26;100.00;101002.41;6121577;22;45443;-96
2022/04/26 04:15:31;;;;;;;;;24.75;19.50;;;;;10.17;100.00;100994.97;6121117;23;45294;-96
2022/04/26 04:17:59;;;;;;;;;23.25;21.25;;;;;10.13;100.00;100993.91;6121132;23;45524;-96
2022/04/26 04:20:39;;;;;;;;;25.50;19.75;;;;;10.18;100.00;100999.38;6122601;23;47332;-96
2022/04/26 04:23:39;;;;;;;;;23.75;17.75;;;;;10.21;100.00;101011.75;6120358;23;45428;-96
2022/04/26 04:26:21;;;;;;;;;21.00;19.75;;;;;10.16;100.00;101006.28;6106048;23;45431;-96
2022/04/26 04:29:02;;;;;;;;;25.50;20.00;;;;;10.20;100.00;101015.22;6122759;23;45294;-96
2022/04/26 04:31:30;;;;;;;;;19.75;17.50;;;;;10.14;100.00;101008.84;6120621;22;48081;-96
2022/04/26 04:34:07;;;;;;;;;18.25;16.50;;;;;10.09;100.00;101007.69;6121153;23;45633;-96
2022/04/26 04:36:36;;;;;;;;;26.50;20.50;;;;;10.07;100.00;100996.22;6134252;22;45370;-96
2022/04/26 04:39:02;;;;;;;;;23.50;20.50;;;;;10.11;100.00;101013.91;6146245;23;45434;-96
2022/04/26 04:41:39;;;;;;;;;19.25;18.00;;;;;10.13;100.00;101020.13;6145612;23;47104;-96
2022/04/26 04:44:06;;;;;;;;;17.50;17.00;;;;;10.09;100.00;101022.53;6146930;23;45410;-96
2022/04/26 04:46:31;;;;;;;;;21.25;20.25;;;;;9.92;100.00;100998.97;6146381;23;45486;-96
2022/04/26 04:48:57;;;;;;;;;21.50;19.50;;;;;10.00;100.00;101013.34;6146245;23;45564;-96
2022/04/26 04:51:25;;;;;;;;;27.50;24.25;;;;;10.10;100.00;101029.59;6146221;23;47537;-96
2022/04/26 04:53:53;;;;;;;;;25.25;22.00;;;;;9.99;100.00;101008.94;6146002;23;45732;-96
2022/04/26 04:56:25;;;;;;;;;31.25;25.75;;;;;10.02;100.00;101014.38;6148468;23;45396;-96
2022/04/26 04:58:56;;;;;;;;;25.50;19.25;;;;;10.02;100.00;101016.06;6147950;23;45346;-96
2022/04/26 05:01:22;;;;;;;;;24.00;22.00;;;;;10.01;100.00;101007.31;6145449;23;47355;-96
2022/04/26 05:03:48;;;;;;;;;30.00;21.50;;;;;10.06;100.00;101008.44;6145630;22;45776;-96
2022/04/26 05:06:17;;;;;;;;;29.00;22.00;;;;;10.20;100.00;101012.59;6121877;22;45321;-95
2022/04/26 05:08:46;;;;;;;;;21.75;20.25;;;;;10.27;100.00;101019.94;6146893;23;45487;-96
2022/04/26 05:11:12;;;;;;;;;26.25;21.75;;;;;10.24;100.00;101023.31;6145952;23;46557;-96
2022/04/26 05:13:37;;;;;;;;;26.75;23.75;;;;;10.26;100.00;101029.53;6146020;23;45310;-95
2022/04/26 05:16:04;;;;;;;;;31.75;27.25;;;;;10.22;100.00;101017.09;6146367;23;45419;-96
2022/04/26 05:18:30;;;;;;;;;22.75;20.00;;;;;10.37;100.00;101044.94;6147134;23;45539;-96
2022/04/26 05:20:55;;;;;;;;;23.00;20.25;;;;;10.39;100.00;101040.66;6144903;23;48729;-96
2022/04/26 05:26:08;;;;;;;;;23.00;20.75;;;;;10.48;100.00;101030.66;6147641;23;45318;-94
2022/04/26 05:28:35;;;;;;;;;30.00;21.75;;;;;10.56;100.00;101032.78;6145660;23;45510;-95
2022/04/26 05:31:00;;;;;;;;;25.50;23.75;;;;;10.56;100.00;101027.53;6146101;23;47104;-96
2022/04/26 05:33:27;;;;;;;;;27.50;22.25;;;;;10.73;100.00;101047.66;6146366;23;45689;-96
2022/04/26 05:35:55;;;;;;;;;32.25;25.00;;;;;10.81;100.00;101057.63;6146048;23;45393;-96
2022/04/26 05:38:20;;;;;;;;;24.50;22.25;;;;;10.76;100.00;101040.75;6146655;23;45481;-96
2022/04/26 05:40:47;;;;;;;;;22.25;21.50;;;;;10.92;100.00;101060.78;6146751;23;46989;-96
2022/04/26 05:43:13;;;;;;;;;30.50;25.25;;;;;10.88;100.00;101046.59;6146178;23;45313;-96
2022/04/26 05:45:38;;;;;;;;;22.75;19.00;;;;;11.00;100.00;101069.97;6147414;23;45364;-96
2022/04/26 05:48:04;;;;;;;;;28.25;23.25;;;;;10.99;100.00;101059.34;6151409;23;45302;-96
2022/04/26 05:50:30;;;;;;;;;25.75;22.50;;;;;11.07;100.00;101063.25;6148101;23;47433;-96
2022/04/26 05:52:55;;;;;;;;;29.00;27.00;;;;;11.07;100.00;101055.38;6170308;22;45161;-96
2022/04/26 05:55:21;;;;;;;;;24.00;21.50;;;;;11.18;100.00;101075.16;6148177;22;44658;-96
2022/04/26 05:57:46;;;;;;;;;25.50;21.25;;;;;11.22;100.00;101077.94;6171209;22;45068;-95
2022/04/26 06:00:13;;;;;;;;;30.00;27.50;;;;;11.24;100.00;101085.09;6164033;22;47059;-95
2022/04/26 06:02:39;;;;;;;;;29.00;24.75;;;;;11.20;100.00;101072.63;6147157;22;46158;-96
2022/04/26 06:05:06;;;;;;;;;27.75;24.75;;;;;11.22;100.00;101075.31;6146419;23;45433;-95
2022/04/26 06:10:07;;;;;;;;;30.50;25.75;;;;;11.27;100.00;101068.56;6135827;22;46736;-96
2022/04/26 06:12:34;;;;;;;;;31.50;24.50;;;;;11.39;100.00;101076.16;6313816;22;45495;-96
2022/04/26 06:15:00;;;;;;;;;30.75;24.50;;;;;11.61;100.00;101074.50;6340232;22;45411;-95
2022/04/26 06:17:27;;;;;;;;;34.50;26.75;;;;;11.83;100.00;101070.22;6313511;22;45321;-96
2022/04/26 06:19:52;;;;;;;;;38.50;28.00;;;;;12.16;100.00;101083.13;6313844;22;47292;-95
2022/04/26 06:22:18;;;;;;;;;27.75;25.50;;;;;12.23;100.00;101091.31;6313689;22;45382;-96
2022/04/26 06:24:44;;;;;;;;;35.00;26.00;;;;;12.41;100.00;101091.22;6313051;22;45281;-88
2022/04/26 06:27:09;;;;;;;;;32.00;23.25;;;;;12.65;100.00;101103.66;6203767;22;45369;-86
2022/04/26 06:29:34;;;;;;;;;27.25;22.50;;;;;12.87;100.00;101108.91;6310514;22;47084;-86
2022/04/26 06:32:00;;;;;;;;;31.25;29.75;;;;;13.03;100.00;101116.63;6308812;22;49752;-86
2022/04/26 06:34:26;;;;;;;;;35.25;28.75;;;;;13.15;100.00;101125.84;6203627;22;45316;-87
2022/04/26 06:36:52;;;;;;;;;31.75;28.25;;;;;13.18;100.00;101131.25;6309164;22;45719;-87
2022/04/26 06:39:17;;;;;;;;;29.50;27.25;;;;;13.17;100.00;101151.44;6208091;22;45959;-85
2022/04/26 06:41:43;;;;;;;;;34.00;28.25;;;;;13.14;100.00;101151.28;6204918;22;45252;-86
2022/04/26 06:44:08;;;;;;;;;31.75;22.25;;;;;13.13;100.00;101162.69;6310384;22;45182;-86
2022/04/26 06:46:36;;;;;;;;;33.75;24.50;;;;;13.11;100.00;101167.00;6310603;22;45487;-87
2022/04/26 06:49:02;;;;;;;;;34.00;28.25;;;;;13.07;100.00;101157.16;6204171;22;45395;-86
2022/04/26 06:51:30;;;;;;;;;36.50;22.25;;;;;13.04;100.00;101170.22;6204570;22;45339;-87
2022/04/26 06:53:56;;;;;;;;;28.25;25.25;;;;;13.01;100.00;101164.81;6307494;22;45252;-86
2022/04/26 06:56:21;;;;;;;;;27.75;25.75;;;;;13.02;100.00;101163.97;6204169;22;45365;-86
2022/04/26 06:58:47;;;;;;;;;31.00;26.75;;;;;13.10;100.00;101156.38;6309267;22;46894;-86
2022/04/26 07:01:12;;;;;;;;;35.50;29.75;;;;;13.18;100.00;101163.78;6203893;22;45458;-85
2022/04/26 07:03:37;;;;;;;;;41.75;32.00;;;;;13.27;100.00;101171.16;6336041;22;45304;-86
2022/04/26 07:06:03;;;;;;;;;38.50;31.75;;;;;13.43;100.00;101162.97;6307578;22;50213;-87
2022/04/26 07:08:28;;;;;;;;;46.50;36.25;;;;;13.53;100.00;101167.78;6202563;22;53006;-86
2022/04/26 07:10:53;;;;;;;;;44.50;37.25;;;;;13.59;100.00;101169.81;6203384;22;45265;-87
2022/04/26 07:13:20;;;;;;;;;45.25;35.50;;;;;13.66;100.00;101177.09;6204133;22;45360;-86
2022/04/26 07:15:46;;;;;;;;;46.50;37.00;;;;;13.69;100.00;101184.25;6310308;22;45446;-86
2022/04/26 07:18:14;;;;;;;;;46.75;35.25;;;;;13.68;100.00;101187.75;6303770;22;47353;-87
2022/04/26 07:20:40;;;;;;;;;39.75;35.25;;;;;13.75;100.00;101192.41;6307859;22;45320;-86
2022/04/26 07:23:06;;;;;;;;;56.50;40.75;;;;;13.81;100.00;101191.78;6198435;22;45368;-87
2022/04/26 07:25:31;;;;;;;;;35.50;34.25;;;;;13.92;100.00;101198.34;6203104;22;45414;-85
2022/04/26 07:27:56;;;;;;;;;49.50;35.50;;;;;14.06;100.00;101193.63;6307144;22;60285;-86
2022/04/26 07:30:22;;;;;;;;;38.50;34.00;;;;;14.16;100.00;101196.59;6203334;22;45267;-85
2022/04/26 07:35:32;;;;;;;;;52.50;37.00;;;;;14.43;100.00;101203.72;6198634;22;45431;-85
2022/04/26 07:38:06;;;;;;;;;54.50;43.25;;;;;14.54;100.00;101209.41;6198051;22;45426;-85
2022/04/26 07:40:32;;;;;;;;;40.25;35.25;;;;;14.68;100.00;101220.50;6202366;22;45325;-86
2022/04/26 07:42:57;;;;;;;;;54.25;39.25;;;;;14.83;100.00;101219.22;6202142;22;45281;-86
2022/04/26 07:45:23;;;;;;;;;38.00;32.00;;;;;14.98;100.00;101218.91;6202852;22;45321;-90
2022/04/26 07:47:49;;;;;;;;;42.75;35.75;;;;;15.24;100.00;101232.13;6307851;22;47838;-87
2022/04/26 07:50:15;;;;;;;;;44.00;36.00;;;;;15.48;100.00;101230.25;6305783;22;45700;-88
2022/04/26 07:52:40;;;;;;;;;45.00;36.25;;;;;15.56;100.00;101238.44;6307591;22;45945;-87
2022/04/26 07:55:06;;;;;;;;;41.50;36.50;;;;;15.52;100.00;101253.31;6306884;22;62448;-88
2022/04/26 07:57:31;;;;;;;;;53.75;38.00;;;;;15.47;100.00;101262.84;6198878;22;45997;-87
2022/04/26 07:59:58;;;;;;;;;34.25;29.50;;;;;15.37;100.00;101259.88;6305312;22;53014;-89
2022/04/26 08:02:24;;;;;;;;;42.25;32.25;;;;;15.22;100.00;101262.00;6306647;22;45392;-89
2022/04/26 08:04:50;;;;;;;;;42.25;35.50;;;;;15.08;100.00;101273.91;6201252;22;45395;-89
2022/04/26 08:07:15;;;;;;;;;41.00;34.50;;;;;14.97;100.00;101275.28;6306263;22;48539;-88
2022/04/26 08:09:41;;;;;;;;;43.50;37.00;;;;;14.91;100.00;101275.03;6201555;22;45359;-87
2022/04/26 08:12:07;;;;;;;;;34.00;29.00;;;;;14.95;100.00;101272.56;6201469;22;45316;-87
2022/04/26 08:14:32;;;;;;;;;44.00;34.50;;;;;15.07;100.00;101271.22;6201091;22;45578;-88
2022/04/26 08:16:58;;;;;;;;;39.75;33.75;;;;;15.17;100.00;101272.44;6307920;22;47003;-87
2022/04/26 08:19:23;;;;;;;;;37.00;33.75;;;;;15.32;100.00;101279.09;6202651;22;45340;-87
2022/04/26 08:21:48;;;;;;;;;41.00;35.50;;;;;15.46;100.00;101274.28;6307633;22;45303;-87
2022/04/26 08:27:43;;;;;;;;;36.00;33.25;;;;;15.69;100.00;101287.38;6202247;22;45710;-88
2022/04/26 08:29:43;;;;;;;;;45.50;36.50;;;;;15.77;100.00;101287.63;6223879;22;45337;-88
2022/04/26 08:32:09;;;;;;;;;42.25;36.00;;;;;15.82;100.00;101294.84;6308349;22;45614;-88
2022/04/26 08:34:34;;;;;;;;;37.25;33.75;;;;;15.86;100.00;101299.41;6201773;22;45396;-84
2022/04/26 08:36:59;;;;;;;;;43.00;34.50;;;;;15.97;100.00;101309.44;6196322;22;46111;-85
2022/04/26 08:39:25;;;;;;;;;36.75;34.25;;;;;16.00;100.00;101322.78;6206929;22;45330;-94
2022/04/26 08:41:56;;;;;;;;;34.75;29.50;;;;;16.16;100.00;101339.16;6208265;22;45272;-95
2022/04/26 08:44:25;;;;;;;;;45.75;36.00;;;;;16.17;100.00;101333.94;6315058;22;45196;-95
2022/04/26 08:52:47;;;;;;;;;38.75;31.00;;;;;16.67;100.00;101350.44;6310737;22;45442;-93
2022/04/26 08:55:12;;;;;;;;;48.00;36.25;;;;;16.98;100.00;101361.94;6304583;22;45314;-95
2022/04/26 08:57:37;;;;;;;;;36.00;30.75;;;;;17.30;100.00;101370.78;6274349;22;47076;-95
2022/04/26 09:00:05;;;;;;;;;38.50;32.75;;;;;17.52;100.00;101379.34;6301570;22;45318;-95
2022/04/26 09:02:31;;;;;;;;;38.50;33.75;;;;;17.57;100.00;101385.66;6283407;22;44807;-94
2022/04/26 09:05:01;;;;;;;;;47.75;33.00;;;;;17.64;100.00;101394.69;6307253;22;45396;-86
2022/04/26 09:07:30;;;;;;;;;47.50;34.75;;;;;17.79;100.00;101403.91;6296096;22;45416;-85
2022/04/26 09:10:03;;;;;;;;;43.75;36.25;;;;;17.87;100.00;101407.66;6296712;22;45367;-86
2022/04/26 09:12:28;;;;;;;;;38.50;32.00;;;;;17.97;100.00;101408.78;6269149;22;45688;-87
2022/04/26 09:14:54;;;;;;;;;39.25;30.50;;;;;18.14;100.00;101419.81;6297934;22;45337;-88
2022/04/26 09:17:19;;;;;;;;;41.25;33.75;;;;;18.23;100.00;101421.84;6295237;22;45539;-88
2022/04/26 09:19:47;;;;;;;;;36.00;31.50;;;;;18.24;100.00;101430.72;6295028;22;45965;-88
2022/04/26 09:22:20;;;;;;;;;39.75;33.25;;;;;18.13;100.00;101441.06;6295898;22;45528;-89
2022/04/26 09:25:07;;;;;;;;;41.50;31.50;;;;;17.84;100.00;101442.09;6295071;22;45381;-87
2022/04/26 09:27:38;;;;;;;;;40.75;35.25;;;;;17.57;100.00;101451.13;6259830;22;48282;-89
2022/04/26 09:30:08;;;;;;;;;37.75;31.50;;;;;17.34;100.00;101446.97;6202604;22;45632;-90
2022/04/26 09:32:50;;;;;;;;;38.75;34.00;;;;;17.19;100.00;101456.28;6202910;22;45360;-90
2022/04/26 09:35:20;;;;;;;;;39.25;34.25;;;;;17.19;100.00;101456.28;6200815;22;45638;-89
2022/04/26 09:37:45;;;;;;;;;18.75;18.75;;;;;17.18;100.00;101449.19;6308862;22;48005;-90
2022/04/26 09:40:11;;;;;;;;;40.00;33.50;;;;;17.12;100.00;101442.75;6217731;22;55325;-90
2022/04/26 09:42:37;;;;;;;;;41.25;32.75;;;;;16.94;100.00;101458.16;6224848;23;44621;-90
2022/04/26 09:45:13;;;;;;;;;39.00;34.00;;;;;17.06;100.00;101451.44;6206546;22;45216;-90
2022/04/26 09:47:40;;;;;;;;;48.50;36.25;;;;;16.95;100.00;101461.72;6309921;22;47921;-90
2022/04/26 09:50:09;;;;;;;;;46.50;37.00;;;;;16.81;100.00;101458.63;6200215;22;45394;-89
2022/04/26 09:52:34;;;;;;;;;36.00;25.75;;;;;16.71;100.00;101454.81;6201363;22;45293;-86
2022/04/26 09:55:00;;;;;;;;;42.75;34.00;;;;;16.70;100.00;101456.53;6202277;22;45309;-89
2022/04/26 09:57:31;;;;;;;;;41.75;34.00;;;;;16.75;100.00;101459.38;6303960;22;47511;-91
2022/04/26 09:59:59;;;;;;;;;40.00;32.75;;;;;16.73;100.00;101463.69;6307316;22;45751;-91
2022/04/26 10:02:30;;;;;;;;;42.75;33.75;;;;;16.62;100.00;101458.06;6200836;22;45442;-88
2022/04/26 10:05:01;;;;;;;;;52.25;36.75;;;;;16.66;100.00;101469.66;6201723;22;45734;-93
2022/04/26 10:07:31;;;;;;;;;42.25;33.00;;;;;16.70;100.00;101477.75;6312063;22;47464;-88
2022/04/26 10:09:58;;;;;;;;;50.25;36.00;;;;;16.67;100.00;101464.44;6205410;22;45406;-89
2022/04/26 10:12:24;;;;;;;;;43.25;35.00;;;;;16.72;100.00;101464.56;6208662;22;45664;-92
2022/04/26 10:14:50;;;;;;;;;39.50;29.75;;;;;16.78;100.00;101459.44;6309481;22;45385;-88
2022/04/26 10:17:19;;;;;;;;;37.25;29.75;;;;;16.84;100.00;101466.69;6314405;22;47102;-91
2022/04/26 10:19:44;;;;;;;;;39.75;32.50;;;;;16.85;100.00;101465.84;6315677;22;45268;-87
2022/04/26 10:22:16;;;;;;;;;40.00;35.00;;;;;16.93;100.00;101476.69;6203923;22;45354;-89
2022/04/26 10:25:09;;;;;;;;;37.50;33.25;;;;;17.00;100.00;101483.06;6203304;22;45574;-88
2022/04/26 10:27:35;;;;;;;;;39.00;33.50;;;;;17.06;100.00;101481.50;6311970;22;47153;-90
2022/04/26 10:30:00;;;;;;;;;38.50;34.50;;;;;17.26;100.00;101480.34;6306416;22;45320;-88
2022/04/26 10:32:38;;;;;;;;;43.00;30.75;;;;;17.53;100.00;101487.28;6309278;22;45509;-87
2022/04/26 10:35:25;;;;;;;;;44.50;32.75;;;;;18.33;100.00;101476.13;6202605;22;45353;-86
2022/04/26 10:38:13;;;;;;;;;40.00;32.75;;;;;19.37;100.00;101486.44;6203355;22;46113;-88
2022/04/26 10:41:04;;;;;;;;;36.75;31.00;;;;;19.86;100.00;101485.59;6202429;22;45367;-88
2022/04/26 10:43:30;;;;;;;;;33.75;26.50;;;;;20.18;100.00;101493.28;6213135;22;45756;-87
2022/04/26 10:46:13;;;;;;;;;31.50;23.00;;;;;20.43;100.00;101511.47;6203624;22;45430;-89
2022/04/26 10:48:38;;;;;;;;;34.25;31.25;;;;;20.32;100.00;101516.63;6203441;22;45322;-88
2022/04/26 10:51:35;;;;;;;;;42.50;33.25;;;;;20.14;100.00;101528.75;6202303;22;45310;-87
2022/04/26 10:54:04;;;;;;;;;34.00;32.75;;;;;19.92;100.00;101530.13;6308145;22;45371;-88
2022/04/26 10:56:30;;;;;;;;;29.75;25.50;;;;;19.77;100.00;101526.25;6205015;22;45341;-90
2022/04/26 10:58:56;;;;;;;;;38.25;31.25;;;;;19.61;100.00;101533.94;6201824;22;45467;-90
2022/04/26 11:01:27;;;;;;;;;38.75;32.25;;;;;19.42;100.00;101520.28;6306742;22;45683;-88
2022/04/26 11:03:57;;;;;;;;;30.75;27.50;;;;;19.25;100.00;101529.66;6307039;22;45346;-87
2022/04/26 11:06:42;;;;;;;;;37.00;33.00;;;;;19.15;100.00;101525.84;6203490;22;45290;-90
2022/04/26 11:09:09;;;;;;;;;21.50;20.00;;;;;19.05;100.00;101524.75;6307544;22;47333;-89
2022/04/26 11:11:48;;;;;;;;;30.50;27.50;;;;;18.92;100.00;101516.50;6308426;22;45821;-90
2022/04/26 11:14:17;;;;;;;;;27.75;25.00;;;;;18.62;100.00;101517.56;6204138;22;45419;-89
2022/04/26 11:17:00;;;;;;;;;34.50;28.75;;;;;18.72;100.00;101511.63;6203424;22;45269;-88
2022/04/26 11:19:33;;;;;;;;;40.50;32.00;;;;;18.85;100.00;101506.56;6308677;22;47580;-88
2022/04/26 11:22:10;;;;;;;;;35.00;28.75;;;;;18.92;100.00;101519.16;6202342;22;45559;-85
2022/04/26 11:30:08;;;;;;;;;33.50;27.00;;;;;20.73;100.00;101498.59;6195107;22;45621;-86
2022/04/26 11:32:44;;;;;;;;;30.25;28.75;;;;;21.10;100.00;101515.19;6305501;22;45305;-90
2022/04/26 11:35:10;;;;;;;;;35.50;27.75;;;;;21.26;100.00;101514.50;6201357;22;45302;-85
2022/04/26 11:37:46;;;;;;;;;33.25;29.50;;;;;21.91;100.00;101513.44;6199873;22;45406;-85
2022/04/26 11:40:21;;;;;;;;;32.00;27.75;;;;;22.30;100.00;101530.75;6307034;22;48134;-86
2022/04/26 11:42:46;;;;;;;;;31.50;23.00;;;;;23.46;100.00;101516.31;6202512;22;45379;-86
2022/04/26 11:45:12;;;;;;;;;33.75;30.75;;;;;24.53;100.00;101536.22;6200701;22;45255;-86
2022/04/26 11:47:48;;;;;;;;;38.00;30.75;;;;;25.04;98.48;101545.09;6201725;22;52078;-87
2022/04/26 11:50:28;;;;;;;;;29.50;25.75;;;;;25.82;95.58;101562.72;6202034;22;46403;-86
2022/04/26 11:53:00;;;;;;;;;45.75;37.00;;;;;26.18;92.55;101571.44;6307903;22;45738;-87
2022/04/26 11:55:31;;;;;;;;;41.00;33.50;;;;;26.21;89.52;101575.91;6201490;22;45379;-87
2022/04/26 11:58:05;;;;;;;;;31.75;28.50;;;;;25.82;90.85;101566.28;6201933;22;45393;-86
2022/04/26 12:00:31;;;;;;;;;28.00;23.00;;;;;26.00;90.62;101569.78;6201767;22;45399;-86
2022/04/26 12:02:57;;;;;;;;;30.75;28.50;;;;;27.37;93.81;101560.50;6201800;22;45511;-87
2022/04/26 12:05:23;;;;;;;;;31.00;27.00;;;;;28.97;91.14;101566.13;6202182;22;45425;-87
2022/04/26 12:07:50;;;;;;;;;29.67;25.67;;;;;30.65;90.46;101578.69;6307306;22;45784;-87
2022/04/26 12:10:30;;;;;;;;;27.67;24.67;;;;;30.61;84.75;101585.13;6305692;22;47295;-87
2022/04/26 12:12:57;;;;;;;;;30.33;25.00;;;;;29.99;82.48;101592.00;6307598;22;45372;-87
2022/04/26 12:15:27;;;;;;;;;33.33;27.00;;;;;29.47;78.58;101594.03;6307414;22;45846;-86
2022/04/26 12:18:15;;;;;;;;;32.00;22.00;;;;;28.51;78.33;101609.28;6307857;22;45388;-86
2022/04/26 12:20:59;;;;;;;;;28.50;23.25;;;;;27.49;77.85;101603.47;6306670;22;47112;-87
2022/04/26 12:23:26;;;;;;;;;26.00;21.67;;;;;28.79;82.66;101595.28;6200005;22;45380;-87
2022/04/26 12:25:56;;;;;;;;;26.33;25.67;;;;;30.93;82.54;101593.34;6308157;22;45798;-87
2022/04/26 12:28:21;;;;;;;;;21.33;19.67;;;;;30.97;77.78;101601.38;6202154;22;45361;-87
2022/04/26 12:30:47;;;;;;;;;28.00;21.67;;;;;32.29;76.96;101600.16;6201730;22;45877;-88
2022/04/26 12:33:24;;;;;;;;;26.00;22.67;;;;;34.91;79.49;101596.66;6306762;22;46001;-87
2022/04/26 12:35:57;;;;;;;;;21.67;18.67;;;;;35.61;73.89;101598.94;6306302;22;45474;-85
2022/04/26 12:38:22;;;;;;;;;24.67;19.00;;;;;35.63;71.47;101601.56;6200918;22;45265;-86
2022/04/26 12:41:00;;;;;;;;;24.67;22.33;;;;;35.56;68.88;101599.13;6308554;22;48152;-86
2022/04/26 12:43:29;;;;;;;;;19.33;17.33;;;;;36.49;68.88;101597.41;6307544;22;46230;-86
2022/04/26 12:46:04;;;;;;;;;21.67;18.00;;;;;36.19;65.57;101598.88;6201519;22;45363;-86
2022/04/26 12:51:27;;;;;;;;;20.33;20.33;;;;;36.59;63.48;101599.66;6200082;22;45830;-87
2022/04/26 12:54:05;;;;;;;;;17.00;17.00;;;;;35.19;60.45;101601.75;6201126;22;45334;-85
2022/04/26 12:56:31;;;;;;;;;22.00;19.00;;;;;36.32;63.04;101596.38;6304323;22;45870;-87
2022/04/26 12:58:56;;;;;;;;;18.00;17.33;;;;;38.53;63.28;101594.41;6305121;22;45431;-86
2022/04/26 13:01:22;;;;;;;;;20.00;17.67;;;;;40.63;62.09;101598.41;6307937;22;47221;-87
2022/04/26 13:03:47;;;;;;;;;22.33;18.00;;;;;42.39;59.49;101591.19;6306436;22;55206;-87
2022/04/26 13:06:17;;;;;;;;;17.33;14.67;;;;;44.56;58.79;101593.84;6306829;22;45403;-87
2022/04/26 13:08:45;;;;;;;;;20.00;17.67;;;;;45.68;53.79;101590.38;6201728;22;45394;-87
2022/04/26 13:11:11;;;;;;;;;17.00;13.33;;;;;46.95;52.68;101588.66;6306579;22;48209;-88
2022/04/26 13:13:40;;;;;;;;;19.67;18.00;;;;;48.16;50.44;101590.56;6201587;22;45470;-87
2022/04/26 13:16:10;;;;;;;;;17.00;14.67;;;;;49.00;47.99;101591.09;6208299;22;45374;-87
2022/04/26 13:18:35;;;;;;;;;17.67;17.00;;;;;48.70;45.48;101583.13;6314687;22;45274;-87
2022/04/26 13:21:01;;;;;;;;;14.67;14.33;;;;;46.21;42.45;101592.94;6200471;22;45281;-87
2022/04/26 13:23:30;;;;;;;;;18.00;16.33;;;;;43.30;42.62;101592.31;6209751;22;45247;-88
2022/04/26 13:25:57;;;;;;;;;20.33;16.00;;;;;43.09;45.14;101579.31;6351800;22;44718;-87
2022/04/26 13:28:23;;;;;;;;;16.67;13.33;;;;;44.74;44.78;101579.41;6220402;22;45264;-88
2022/04/26 13:30:48;;;;;;;;;14.33;13.67;;;;;45.98;44.41;101577.41;6217799;22;45218;-88
2022/04/26 13:33:13;;;;;;;;;13.67;13.00;;;;;46.09;42.58;101575.53;6320231;22;45342;-85
2022/04/26 13:35:39;;;;;;;;;11.67;11.67;;;;;46.02;42.78;101571.59;6200278;22;45304;-84
2022/04/26 13:38:09;;;;;;;;;15.67;14.00;;;;;44.92;42.42;101570.44;6324754;22;45305;-86
2022/04/26 13:40:35;;;;;;;;;16.33;15.67;;;;;42.53;41.12;101579.97;6202107;22;45434;-87
2022/04/26 13:43:01;;;;;;;;;13.00;12.67;;;;;40.75;42.07;101575.56;6201699;22;45435;-86
2022/04/26 13:45:27;;;;;;;;;16.67;15.67;;;;;40.75;43.51;101566.41;6201755;22;45399;-86
2022/04/26 13:47:52;;;;;;;;;17.67;15.00;;;;;39.78;43.37;101573.88;6307037;22;45713;-86
2022/04/26 13:50:18;;;;;;;;;14.00;13.00;;;;;38.93;43.47;101557.28;6203083;22;46467;-86
2022/04/26 13:52:44;;;;;;;;;15.33;14.00;;;;;40.94;44.83;101551.34;6203050;22;45248;-85
2022/04/26 13:55:11;;;;;;;;;13.33;13.33;;;;;43.52;44.79;101557.41;6203243;22;45451;-86
2022/04/26 13:57:39;;;;;;;;;15.00;14.67;;;;;43.86;42.89;101559.22;6203959;22;45754;-86
2022/04/26 14:00:05;;;;;;;;;16.00;15.67;;;;;43.79;42.71;101556.09;6306808;22;47947;-86
2022/04/26 14:02:30;;;;;;;;;14.67;14.33;;;;;45.59;43.01;101558.84;6308084;22;46005;-87
2022/04/26 14:04:55;;;;;;;;;13.67;12.67;;;;;47.06;41.93;101551.50;6203579;22;52743;-87
2022/04/26 14:07:21;;;;;;;;;13.00;13.00;;;;;47.68;42.23;101557.41;6202326;22;45317;-87
2022/04/26 14:09:46;;;;;;;;;14.67;13.67;;;;;46.49;39.63;101548.63;6203170;22;45518;-87
2022/04/26 14:12:14;;;;;;;;;16.00;13.33;;;;;44.08;38.98;101557.34;6200841;22;45666;-87
2022/04/26 14:22:52;;;;;;;;;15.33;14.00;;;;;34.14;43.09;101551.72;6202094;22;45550;-89
2022/04/26 14:25:18;;;;;;;;;13.67;11.67;;;;;32.56;43.59;101550.38;6201066;22;45413;-89
2022/04/26 14:27:45;;;;;;;;;13.67;12.67;;;;;31.18;45.12;101550.16;6308466;22;45432;-89
2022/04/26 14:30:12;;;;;;;;;14.00;11.33;;;;;30.04;45.61;101547.69;6203943;22;45382;-88
2022/04/26 14:32:38;;;;;;;;;12.67;10.33;;;;;29.20;47.57;101548.59;6203449;22;45406;-88
2022/04/26 14:35:04;;;;;;;;;12.00;10.67;;;;;28.61;48.24;101546.09;6307769;22;45706;-88
2022/04/26 14:37:30;;;;;;;;;13.00;12.67;;;;;28.19;49.21;101555.75;6197634;22;45729;-87
2022/04/26 14:39:55;;;;;;;;;12.33;12.33;;;;;27.81;49.65;101552.72;6203003;22;46518;-88
2022/04/26 14:42:23;;;;;;;;;14.67;14.67;;;;;27.44;50.39;101549.63;6203008;22;57123;-88
2022/04/26 14:44:49;;;;;;;;;15.67;11.33;;;;;27.10;50.93;101541.91;6308723;22;45295;-88
2022/04/26 14:47:15;;;;;;;;;13.33;11.33;;;;;26.78;51.77;101550.31;6202774;22;45602;-88
2022/04/26 14:49:41;;;;;;;;;11.33;11.00;;;;;26.40;52.02;101551.53;6202026;22;46826;-89
2022/04/26 14:52:07;;;;;;;;;9.00;9.00;;;;;25.98;52.38;101548.28;6306452;22;45858;-88
2022/04/26 14:54:33;;;;;;;;;13.00;13.00;;;;;25.84;52.84;101550.16;6203113;22;45335;-87
2022/04/26 14:56:59;;;;;;;;;12.00;12.00;;;;;25.50;52.77;101552.09;6308099;22;45295;-87
2022/04/26 14:59:25;;;;;;;;;16.00;12.33;;;;;25.17;53.26;101557.59;6201807;22;46227;-88
2022/04/26 15:01:50;;;;;;;;;11.33;10.67;;;;;24.89;53.89;101552.28;6308340;22;45292;-88
2022/04/26 15:04:17;;;;;;;;;15.00;13.67;;;;;24.69;54.25;101550.50;6308701;22;45469;-87
2022/04/26 15:06:43;;;;;;;;;12.33;10.67;;;;;24.58;54.87;101547.84;6307864;22;45467;-87
2022/04/26 15:16:37;;;;;;;;;11.00;11.00;;;;;24.32;56.02;101535.31;6201037;22;45590;-87
2022/04/26 15:17:23;;;;;;;;;9.00;9.00;;;;;24.22;56.57;101534.41;6203077;22;45269;-87
2022/04/26 15:19:50;;;;;;;;;12.00;9.33;;;;;24.24;57.07;101529.00;6308137;22;47429;-87
2022/04/26 15:22:18;;;;;;;;;12.33;11.00;;;;;24.19;57.13;101535.28;6305663;22;45917;-88
2022/04/26 15:24:45;;;;;;;;;10.00;9.67;;;;;23.93;57.32;101532.56;6308116;22;45335;-88
2022/04/26 15:27:11;;;;;;;;;8.33;8.33;;;;;23.56;56.87;101536.91;6307694;22;45518;-85